Time,TemperatureF,DewpointF,PressureIn,WindDirection,WindDirectionDegrees,WindSpeedMPH,WindSpeedGustMPH,Humidity,HourlyPrecipIn,Conditions,Clouds,dailyrainin,SoftwareType,DateUTC
2013-04-16 00:01:00,38.2,30.0,30.10,SSW,209,0.0,8.0,72,0.00,,,0.00,weatherlink.com 1.10,2013-04-16 05:01:00,
2013-04-16 00:16:00,38.1,30.0,30.10,SW,225,1.0,8.0,72,0.00,,,0.00,weatherlink.com 1.10,2013-04-16 05:16:00,
2013-04-16 00:31:00,37.9,30.0,30.11,SW,234,4.0,9.0,73,0.00,,,0.00,weatherlink.com 1.10,2013-04-16 05:31:00,
2013-04-16 00:46:00,37.7,30.0,30.11,WSW,242,5.0,13.0,74,0.00,,,0.00,weatherlink.com 1.10,2013-04-16 05:46:00,
2013-04-16 01:01:00,37.5,30.0,30.10,SW,236,5.0,9.0,74,0.00,,,0.00,weatherlink.com 1.10,2013-04-16 06:01:00,
2013-04-16 01:16:00,37.3,30.0,30.11,SW,228,6.0,10.0,75,0.00,,,0.00,weatherlink.com 1.10,2013-04-16 06:16:00,
2013-04-16 01:31:00,37.2,30.0,30.10,SSW,212,4.0,9.0,76,0.00,,,0.00,weatherlink.com 1.10,2013-04-16 06:31:00,
2013-04-16 01:46:00,36.9,30.0,30.09,SW,224,2.0,9.0,77,0.00,,,0.00,weatherlink.com 1.10,2013-04-16 06:46:00,
2013-04-16 02:01:00,36.6,30.0,30.10,SSW,196,5.0,9.0,78,0.00,,,0.00,weatherlink.com 1.10,2013-04-16 07:01:00,
2013-04-16 02:16:00,36.4,30.0,30.10,SSW,211,6.0,11.0,79,0.00,,,0.00,weatherlink.com 1.10,2013-04-16 07:16:00,
2013-04-16 02:31:00,36.1,30.0,30.09,SW,225,3.0,8.0,79,0.00,,,0.00,weatherlink.com 1.10,2013-04-16 07:31:00,
2013-04-16 02:46:00,35.9,30.0,30.11,SW,230,5.0,11.0,80,0.00,,,0.00,weatherlink.com 1.10,2013-04-16 07:46:00,
2013-04-16 03:01:00,35.7,30.0,30.10,SSW,209,6.0,10.0,81,0.00,,,0.00,weatherlink.com 1.10,2013-04-16 08:01:00,
2013-04-16 03:16:00,35.5,30.0,30.11,SW,219,2.0,10.0,81,0.00,,,0.00,weatherlink.com 1.10,2013-04-16 08:16:00,
2013-04-16 03:31:00,35.3,30.0,30.12,SW,221,7.0,8.0,82,0.00,,,0.00,weatherlink.com 1.10,2013-04-16 08:31:00,
2013-04-16 03:46:00,35.3,30.0,30.14,SSW,205,4.0,11.0,82,0.00,,,0.00,weatherlink.com 1.10,2013-04-16 08:46:00,
2013-04-16 04:02:00,35.2,30.0,30.14,SW,227,2.0,11.0,81,0.00,,,0.00,weatherlink.com 1.10,2013-04-16 09:02:00,
2013-04-16 04:17:00,35.0,30.0,30.13,WSW,238,0.0,10.0,81,0.00,,,0.00,weatherlink.com 1.10,2013-04-16 09:17:00,
2013-04-16 04:32:00,34.8,30.0,30.13,WSW,247,0.0,7.0,82,0.00,,,0.00,weatherlink.com 1.10,2013-04-16 09:32:00,
2013-04-16 04:47:00,34.6,30.0,30.15,SW,225,3.0,7.0,83,0.00,,,0.00,weatherlink.com 1.10,2013-04-16 09:47:00,
2013-04-16 05:02:00,34.5,30.0,30.16,SW,236,5.0,10.0,83,0.00,,,0.00,weatherlink.com 1.10,2013-04-16 10:02:00,
2013-04-16 05:17:00,34.4,30.0,30.16,WSW,238,5.0,9.0,83,0.00,,,0.00,weatherlink.com 1.10,2013-04-16 10:17:00,
2013-04-16 05:32:00,34.4,30.0,30.15,WSW,238,0.0,7.0,83,0.00,,,0.00,weatherlink.com 1.10,2013-04-16 10:32:00,
2013-04-16 05:47:00,34.4,30.0,30.16,WSW,239,0.0,6.0,83,0.00,,,0.00,weatherlink.com 1.10,2013-04-16 10:47:00,
2013-04-16 06:02:00,34.6,30.0,30.17,WSW,239,5.0,5.0,83,0.00,,,0.00,weatherlink.com 1.10,2013-04-16 11:02:00,
2013-04-16 06:17:00,34.7,30.0,30.19,WSW,240,5.0,5.0,83,0.00,,,0.00,weatherlink.com 1.10,2013-04-16 11:17:00,
2013-04-16 06:32:00,34.8,30.0,30.20,WSW,237,0.0,5.0,82,0.00,,,0.00,weatherlink.com 1.10,2013-04-16 11:32:00,
2013-04-16 06:47:00,34.8,30.0,30.21,West,263,2.0,9.0,82,0.00,,,0.00,weatherlink.com 1.10,2013-04-16 11:47:00,
2013-04-16 07:02:00,34.9,30.0,30.21,West,260,7.0,11.0,81,0.00,,,0.00,weatherlink.com 1.10,2013-04-16 12:02:00,
2013-04-16 07:17:00,35.2,30.0,30.22,West,267,7.0,12.0,80,0.00,,,0.00,weatherlink.com 1.10,2013-04-16 12:17:00,
2013-04-16 07:32:00,35.3,29.0,30.23,West,271,6.0,10.0,79,0.00,,,0.00,weatherlink.com 1.10,2013-04-16 12:32:00,
2013-04-16 07:47:00,35.4,29.0,30.24,West,276,8.0,12.0,78,0.00,,,0.00,weatherlink.com 1.10,2013-04-16 12:47:00,
2013-04-16 08:02:00,35.7,29.0,30.25,SW,223,2.0,10.0,77,0.00,,,0.00,weatherlink.com 1.10,2013-04-16 13:02:00,
2013-04-16 08:17:00,35.7,29.0,30.25,West,277,9.0,13.0,76,0.00,,,0.00,weatherlink.com 1.10,2013-04-16 13:17:00,
2013-04-16 08:32:00,35.8,29.0,30.26,WNW,294,8.0,13.0,76,0.00,,,0.00,weatherlink.com 1.10,2013-04-16 13:32:00,
2013-04-16 08:47:00,36.1,29.0,30.26,West,277,3.0,12.0,75,0.00,,,0.00,weatherlink.com 1.10,2013-04-16 13:47:00,
2013-04-16 09:02:00,36.1,29.0,30.27,West,262,8.0,13.0,75,0.00,,,0.00,weatherlink.com 1.10,2013-04-16 14:02:00,
2013-04-16 09:17:00,36.5,29.0,30.27,West,277,9.0,12.0,75,0.00,,,0.00,weatherlink.com 1.10,2013-04-16 14:17:00,
2013-04-16 09:32:00,36.2,29.0,30.28,WNW,289,2.0,16.0,74,0.00,,,0.00,weatherlink.com 1.10,2013-04-16 14:32:00,
2013-04-16 09:47:00,36.7,29.0,30.29,WSW,248,6.0,13.0,74,0.00,,,0.00,weatherlink.com 1.10,2013-04-16 14:47:00,
2013-04-16 10:02:00,36.7,29.0,30.29,NW,317,7.0,12.0,73,0.00,,,0.00,weatherlink.com 1.10,2013-04-16 15:02:00,
2013-04-16 10:17:00,37.3,29.0,30.28,NNW,347,5.0,13.0,73,0.00,,,0.00,weatherlink.com 1.10,2013-04-16 15:17:00,
2013-04-16 10:32:00,38.1,30.0,30.29,WSW,251,5.0,10.0,72,0.00,,,0.00,weatherlink.com 1.10,2013-04-16 15:32:00,
2013-04-16 10:47:00,38.3,29.0,30.30,WNW,298,5.0,11.0,70,0.00,,,0.00,weatherlink.com 1.10,2013-04-16 15:47:00,
2013-04-16 11:02:00,38.2,29.0,30.31,WNW,286,0.0,14.0,70,0.00,,,0.00,weatherlink.com 1.10,2013-04-16 16:02:00,
2013-04-16 11:18:00,39.1,29.0,30.31,North,350,7.0,10.0,68,0.00,,,0.00,weatherlink.com 1.10,2013-04-16 16:18:00,
2013-04-16 11:33:00,39.8,30.0,30.32,North,11,7.0,10.0,68,0.00,,,0.00,weatherlink.com 1.10,2013-04-16 16:33:00,
2013-04-16 11:48:00,40.2,30.0,30.32,WNW,292,4.0,12.0,67,0.00,,,0.00,weatherlink.com 1.10,2013-04-16 16:48:00,
2013-04-16 12:03:00,40.4,29.0,30.32,North,5,4.0,9.0,65,0.00,,,0.00,weatherlink.com 1.10,2013-04-16 17:03:00,
2013-04-16 12:18:00,41.3,30.0,30.33,WSW,258,2.0,9.0,65,0.00,,,0.00,weatherlink.com 1.10,2013-04-16 17:18:00,
2013-04-16 12:33:00,42.4,31.0,30.33,WSW,249,0.0,8.0,64,0.00,,,0.00,weatherlink.com 1.10,2013-04-16 17:33:00,
2013-04-16 12:48:00,41.9,30.0,30.32,WSW,253,4.0,13.0,63,0.00,,,0.00,weatherlink.com 1.10,2013-04-16 17:48:00,
2013-04-16 13:03:00,41.9,30.0,30.32,North,355,7.0,13.0,62,0.00,,,0.00,weatherlink.com 1.10,2013-04-16 18:03:00,
2013-04-16 13:18:00,42.2,30.0,30.32,NE,49,8.0,10.0,63,0.00,,,0.00,weatherlink.com 1.10,2013-04-16 18:18:00,
2013-04-16 13:33:00,43.1,31.0,30.32,ENE,70,1.0,13.0,62,0.00,,,0.00,weatherlink.com 1.10,2013-04-16 18:33:00,
2013-04-16 13:48:00,44.9,31.0,30.32,West,278,0.0,11.0,59,0.00,,,0.00,weatherlink.com 1.10,2013-04-16 18:48:00,
2013-04-16 14:03:00,45.1,31.0,30.32,WSW,256,4.0,11.0,58,0.00,,,0.00,weatherlink.com 1.10,2013-04-16 19:03:00,
2013-04-16 14:18:00,45.1,30.0,30.32,NNE,19,6.0,7.0,57,0.00,,,0.00,weatherlink.com 1.10,2013-04-16 19:18:00,
2013-04-16 14:48:00,45.6,31.0,30.32,NNE,17,8.0,10.0,58,0.00,,,0.00,weatherlink.com 1.10,2013-04-16 19:48:00,
2013-04-16 15:03:00,45.5,31.0,30.32,NW,326,7.0,12.0,57,0.00,,,0.00,weatherlink.com 1.10,2013-04-16 20:03:00,
2013-04-16 15:18:00,45.4,31.0,30.32,NNW,336,6.0,11.0,57,0.00,,,0.00,weatherlink.com 1.10,2013-04-16 20:18:00,
2013-04-16 15:33:00,46.2,31.0,30.32,West,259,2.0,11.0,56,0.00,,,0.00,weatherlink.com 1.10,2013-04-16 20:33:00,
2013-04-16 15:48:00,46.8,31.0,30.31,NW,321,3.0,14.0,54,0.00,,,0.00,weatherlink.com 1.10,2013-04-16 20:48:00,
2013-04-16 16:03:00,46.2,31.0,30.32,NNE,16,11.0,13.0,56,0.00,,,0.00,weatherlink.com 1.10,2013-04-16 21:03:00,
2013-04-16 16:18:00,47.9,30.0,30.31,West,259,4.0,9.0,51,0.00,,,0.00,weatherlink.com 1.10,2013-04-16 21:18:00,
2013-04-16 16:48:00,48.1,28.0,30.32,SSW,209,2.0,14.0,46,0.00,,,0.00,weatherlink.com 1.10,2013-04-16 21:48:00,
2013-04-16 17:03:00,47.9,30.0,30.32,West,277,8.0,12.0,50,0.00,,,0.00,weatherlink.com 1.10,2013-04-16 22:03:00,
2013-04-16 17:18:00,47.8,31.0,30.32,West,277,9.0,13.0,53,0.00,,,0.00,weatherlink.com 1.10,2013-04-16 22:18:00,
2013-04-16 17:33:00,48.0,32.0,30.32,NNW,342,0.0,13.0,54,0.00,,,0.00,weatherlink.com 1.10,2013-04-16 22:33:00,
2013-04-16 17:48:00,48.3,32.0,30.32,WNW,300,6.0,13.0,53,0.00,,,0.00,weatherlink.com 1.10,2013-04-16 22:48:00,
2013-04-16 18:03:00,48.5,32.0,30.32,SW,216,4.0,12.0,54,0.00,,,0.00,weatherlink.com 1.10,2013-04-16 23:03:00,
2013-04-16 18:18:00,48.4,32.0,30.33,WNW,291,6.0,11.0,54,0.00,,,0.00,weatherlink.com 1.10,2013-04-16 23:18:00,
2013-04-16 18:33:00,48.0,32.0,30.33,WNW,286,0.0,9.0,54,0.00,,,0.00,weatherlink.com 1.10,2013-04-16 23:33:00,
2013-04-16 18:48:00,47.8,32.0,30.33,West,263,0.0,7.0,54,0.00,,,0.00,weatherlink.com 1.10,2013-04-16 23:48:00,
2013-04-16 19:03:00,48.0,32.0,30.33,West,273,2.0,9.0,54,0.00,,,0.00,weatherlink.com 1.10,2013-04-17 00:03:00,
2013-04-16 19:18:00,47.8,32.0,30.34,NW,310,2.0,7.0,54,0.00,,,0.00,weatherlink.com 1.10,2013-04-17 00:18:00,
2013-04-16 19:33:00,47.6,32.0,30.34,WNW,300,4.0,9.0,55,0.00,,,0.00,weatherlink.com 1.10,2013-04-17 00:33:00,
2013-04-16 19:48:00,47.1,32.0,30.34,North,351,8.0,13.0,56,0.00,,,0.00,weatherlink.com 1.10,2013-04-17 00:48:00,
2013-04-16 20:03:00,46.7,31.0,30.34,NNE,28,8.0,13.0,55,0.00,,,0.00,weatherlink.com 1.10,2013-04-17 01:03:00,
2013-04-16 20:18:00,46.3,31.0,30.35,NNE,20,9.0,13.0,55,0.00,,,0.00,weatherlink.com 1.10,2013-04-17 01:18:00,
2013-04-16 20:33:00,45.7,31.0,30.36,North,355,11.0,14.0,57,0.00,,,0.00,weatherlink.com 1.10,2013-04-17 01:33:00,
2013-04-16 20:49:00,45.2,31.0,30.37,North,360,8.0,12.0,58,0.00,,,0.00,weatherlink.com 1.10,2013-04-17 01:49:00,
2013-04-16 21:04:00,44.9,32.0,30.37,NNE,17,5.0,9.0,60,0.00,,,0.00,weatherlink.com 1.10,2013-04-17 02:04:00,
2013-04-16 21:19:00,44.3,31.0,30.38,NNE,24,5.0,12.0,61,0.00,,,0.00,weatherlink.com 1.10,2013-04-17 02:19:00,
2013-04-16 21:49:00,43.3,30.0,30.39,NNW,346,6.0,10.0,61,0.00,,,0.00,weatherlink.com 1.10,2013-04-17 02:49:00,
2013-04-16 22:04:00,43.0,30.0,30.39,NNW,344,6.0,9.0,61,0.00,,,0.00,weatherlink.com 1.10,2013-04-17 03:04:00,
2013-04-16 22:19:00,42.5,31.0,30.39,NNW,332,2.0,8.0,63,0.00,,,0.00,weatherlink.com 1.10,2013-04-17 03:19:00,
2013-04-16 22:34:00,42.0,31.0,30.40,NNW,327,6.0,8.0,65,0.00,,,0.00,weatherlink.com 1.10,2013-04-17 03:34:00,
2013-04-16 22:49:00,41.6,31.0,30.40,NNW,331,5.0,8.0,67,0.00,,,0.00,weatherlink.com 1.10,2013-04-17 03:49:00,
2013-04-16 23:04:00,41.3,31.0,30.40,NNW,331,3.0,7.0,67,0.00,,,0.00,weatherlink.com 1.10,2013-04-17 04:04:00,
2013-04-16 23:19:00,40.8,31.0,30.41,NNW,327,4.0,6.0,69,0.00,,,0.00,weatherlink.com 1.10,2013-04-17 04:19:00,
2013-04-16 23:34:00,40.6,31.0,30.42,NNW,327,0.0,6.0,69,0.00,,,0.00,weatherlink.com 1.10,2013-04-17 04:34:00,
2013-04-16 23:49:00,40.4,31.0,30.41,NNW,328,5.0,8.0,70,0.00,,,0.00,weatherlink.com 1.10,2013-04-17 04:49:00,